createdAt,value
2019-02-25T00:00:14.882Z,-3.13
2019-02-25T00:01:14.940Z,-3.15
2019-02-25T00:02:14.202Z,-3.15
2019-02-25T00:03:14.463Z,-3.11
2019-02-25T00:04:14.741Z,-3.09
2019-02-25T00:05:15.013Z,-3.02
2019-02-25T00:06:14.273Z,-3.01
2019-02-25T00:07:14.533Z,-3.05
2019-02-25T00:08:14.790Z,-3.04
2019-02-25T00:09:15.170Z,-3.01
2019-02-25T00:10:14.444Z,-3.01
2019-02-25T00:11:14.483Z,-2.94
2019-02-25T00:12:14.757Z,-3.01
2019-02-25T00:13:15.037Z,-3.02
2019-02-25T00:14:14.303Z,-3.04
2019-02-25T00:15:14.586Z,-2.98
2019-02-25T00:16:14.851Z,-2.97
2019-02-25T00:17:15.114Z,-2.98
2019-02-25T00:18:14.379Z,-2.98
2019-02-25T00:19:14.637Z,-2.95
2019-02-25T00:20:14.911Z,-2.94
2019-02-25T00:21:14.951Z,-2.92
2019-02-25T00:22:14.211Z,-2.90
2019-02-25T00:23:14.471Z,-2.91
2019-02-25T00:24:14.734Z,-2.91
2019-02-25T00:25:14.989Z,-2.90
2019-02-25T00:26:14.251Z,-2.84
2019-02-25T00:27:14.523Z,-2.85
2019-02-25T00:28:14.784Z,-2.91
2019-02-25T00:29:15.045Z,-2.95
2019-02-25T00:30:14.331Z,-3.01
2019-02-25T00:31:14.390Z,-3.04
2019-02-25T00:32:14.659Z,-3.05
2019-02-25T00:33:14.926Z,-3.08
2019-02-25T00:34:14.197Z,-3.15
2019-02-25T00:35:14.460Z,-3.16
2019-02-25T00:36:14.720Z,-3.25
2019-02-25T00:37:14.981Z,-3.28
2019-02-25T00:38:14.243Z,-3.21
2019-02-25T00:39:14.500Z,-3.23
2019-02-25T00:40:14.782Z,-3.26
2019-02-25T00:41:14.830Z,-3.35
2019-02-25T00:42:15.089Z,-3.35
2019-02-25T00:43:14.363Z,-3.33
2019-02-25T00:44:14.630Z,-3.32
2019-02-25T00:45:14.891Z,-3.29
2019-02-25T00:46:15.154Z,-3.28
2019-02-25T00:47:14.409Z,-3.23
2019-02-25T00:48:14.671Z,-3.21
2019-02-25T00:49:14.936Z,-3.19
2019-02-25T00:50:14.209Z,-3.22
2019-02-25T00:51:14.254Z,-3.25
2019-02-25T00:52:14.524Z,-3.26
2019-02-25T00:53:14.789Z,-3.30
2019-02-25T00:54:15.072Z,-3.22
2019-02-25T00:55:14.357Z,-3.25
2019-02-25T00:56:14.629Z,-3.26
2019-02-25T00:57:14.900Z,-3.28
2019-02-25T00:58:14.169Z,-3.33
2019-02-25T00:59:14.434Z,-3.35
2019-02-25T01:00:14.716Z,-3.39
2019-02-25T01:01:14.746Z,-3.39
2019-02-25T01:02:15.008Z,-3.39
2019-02-25T01:03:14.275Z,-3.39
2019-02-25T01:04:14.543Z,-3.39
2019-02-25T01:05:14.797Z,-3.36
2019-02-25T01:06:15.065Z,-3.40
2019-02-25T01:07:14.328Z,-3.40
2019-02-25T01:08:14.600Z,-3.37
2019-02-25T01:09:14.866Z,-3.40
2019-02-25T01:10:15.179Z,-3.44
2019-02-25T01:11:14.205Z,-3.43
2019-02-25T01:12:14.481Z,-3.41
2019-02-25T01:13:14.746Z,-3.43
2019-02-25T01:14:15.009Z,-3.41
2019-02-25T01:15:14.274Z,-3.41
2019-02-25T01:16:14.540Z,-3.41
2019-02-25T01:17:14.806Z,-3.40
2019-02-25T01:18:15.078Z,-3.37
2019-02-25T01:19:14.346Z,-3.32
2019-02-25T01:20:14.620Z,-3.29
2019-02-25T01:21:14.667Z,-3.25
2019-02-25T01:22:14.934Z,-3.30
2019-02-25T01:23:14.212Z,-3.29
2019-02-25T01:24:14.486Z,-3.29
2019-02-25T01:25:14.755Z,-3.18
2019-02-25T01:26:15.027Z,-3.16
2019-02-25T01:27:14.306Z,-3.19
2019-02-25T01:28:14.584Z,-3.19
2019-02-25T01:29:14.856Z,-3.18
2019-02-25T01:30:15.144Z,-3.18
2019-02-25T01:31:14.179Z,-3.23
2019-02-25T01:32:14.453Z,-3.23
2019-02-25T01:33:14.717Z,-3.26
2019-02-25T01:34:14.981Z,-3.26
2019-02-25T01:35:14.278Z,-3.26
2019-02-25T01:36:14.543Z,-3.22
2019-02-25T01:37:14.802Z,-3.18
2019-02-25T01:38:15.743Z,-3.13
2019-02-25T01:39:15.095Z,-3.15
2019-02-25T01:40:14.378Z,-3.18
2019-02-25T01:41:14.410Z,-3.18
2019-02-25T01:42:14.666Z,-3.19
2019-02-25T01:43:14.930Z,-3.19
2019-02-25T01:44:14.196Z,-3.23
2019-02-25T01:45:14.464Z,-3.22
2019-02-25T01:46:14.762Z,-3.22
2019-02-25T01:47:15.029Z,-3.16
2019-02-25T01:48:14.305Z,-3.22
2019-02-25T01:49:14.575Z,-3.23
2019-02-25T01:50:14.856Z,-3.25
2019-02-25T01:51:14.911Z,-3.23
2019-02-25T01:52:14.205Z,-3.21
2019-02-25T01:53:14.463Z,-3.23
2019-02-25T01:54:14.736Z,-3.12
2019-02-25T01:55:15.317Z,-3.16
2019-02-25T01:56:14.593Z,-3.19
2019-02-25T01:57:14.859Z,-3.13
2019-02-25T01:58:15.128Z,-3.13
2019-02-25T01:59:14.391Z,-3.12
2019-02-25T02:00:14.668Z,-3.16
2019-02-25T02:01:14.732Z,-3.15
2019-02-25T02:02:15.027Z,-3.11
2019-02-25T02:03:14.288Z,-3.05
2019-02-25T02:04:14.554Z,-2.97
2019-02-25T02:05:14.831Z,-3.00
2019-02-25T02:06:15.108Z,-3.04
2019-02-25T02:07:14.375Z,-3.08
2019-02-25T02:08:14.651Z,-3.07
2019-02-25T02:09:14.918Z,-3.07
2019-02-25T02:10:14.182Z,-3.08
2019-02-25T02:11:14.240Z,-3.08
2019-02-25T02:12:14.498Z,-3.07
2019-02-25T02:13:14.763Z,-3.09
2019-02-25T02:14:15.027Z,-3.11
2019-02-25T02:15:14.304Z,-3.09
2019-02-25T02:16:14.576Z,-3.09
2019-02-25T02:17:14.846Z,-3.08
2019-02-25T02:18:15.109Z,-3.12
2019-02-25T02:19:14.377Z,-3.13
2019-02-25T02:20:14.654Z,-3.08
2019-02-25T02:21:14.689Z,-3.21
2019-02-25T02:22:14.946Z,-3.32
2019-02-25T02:23:14.216Z,-3.39
2019-02-25T02:24:14.488Z,-3.46
2019-02-25T02:25:14.753Z,-3.49
2019-02-25T02:26:15.223Z,-3.41
2019-02-25T02:27:14.483Z,-3.41
2019-02-25T02:28:14.774Z,-3.40
2019-02-25T02:29:15.041Z,-3.40
2019-02-25T02:30:14.312Z,-3.43
2019-02-25T02:31:14.375Z,-3.36
2019-02-25T02:32:14.657Z,-3.33
2019-02-25T02:33:14.923Z,-3.39
2019-02-25T02:34:14.185Z,-3.33
2019-02-25T02:35:14.467Z,-3.32
2019-02-25T02:36:14.740Z,-3.57
2019-02-25T02:37:15.026Z,-3.71
2019-02-25T02:38:14.292Z,-3.70
2019-02-25T02:39:14.557Z,-3.73
2019-02-25T02:40:14.834Z,-3.70
2019-02-25T02:41:14.869Z,-3.70
2019-02-25T02:42:15.138Z,-3.71
2019-02-25T02:43:14.429Z,-3.68
2019-02-25T02:44:14.690Z,-3.66
2019-02-25T02:45:14.961Z,-3.64
2019-02-25T02:46:14.218Z,-3.60
2019-02-25T02:47:14.561Z,-3.59
2019-02-25T02:48:14.814Z,-3.60
2019-02-25T02:49:15.078Z,-3.61
2019-02-25T02:50:14.399Z,-3.59
2019-02-25T02:51:14.453Z,-3.57
2019-02-25T02:52:14.712Z,-3.54
2019-02-25T02:53:14.975Z,-3.41
2019-02-25T02:54:14.239Z,-3.43
2019-02-25T02:55:14.508Z,-3.44
2019-02-25T02:56:14.773Z,-3.53
2019-02-25T02:57:15.365Z,-3.57
2019-02-25T02:58:14.635Z,-3.56
2019-02-25T02:59:14.908Z,-3.56
2019-02-25T03:00:14.202Z,-3.59
2019-02-25T03:01:14.241Z,-3.60
2019-02-25T03:02:14.521Z,-3.57
2019-02-25T03:03:14.796Z,-3.61
2019-02-25T03:04:15.066Z,-3.61
2019-02-25T03:05:14.332Z,-3.76
2019-02-25T03:06:14.602Z,-3.86
2019-02-25T03:07:14.873Z,-3.95
2019-02-25T03:08:15.167Z,-3.99
2019-02-25T03:09:14.448Z,-3.99
2019-02-25T03:10:14.883Z,-3.99
2019-02-25T03:11:14.928Z,-3.99
2019-02-25T03:12:14.205Z,-4.04
2019-02-25T03:13:14.473Z,-4.04
2019-02-25T03:14:14.738Z,-4.04
2019-02-25T03:15:15.011Z,-4.01
2019-02-25T03:16:14.276Z,-3.98
2019-02-25T03:17:14.560Z,-3.99
2019-02-25T03:18:14.826Z,-3.99
2019-02-25T03:19:15.094Z,-3.97
2019-02-25T03:20:14.390Z,-3.95
2019-02-25T03:21:14.428Z,-3.97
2019-02-25T03:22:15.074Z,-3.94
2019-02-25T03:23:14.335Z,-3.91
2019-02-25T03:24:14.610Z,-3.95
2019-02-25T03:25:14.877Z,-3.95
2019-02-25T03:26:15.147Z,-3.95
2019-02-25T03:27:14.427Z,-3.95
2019-02-25T03:28:14.692Z,-3.98
2019-02-25T03:29:14.967Z,-4.02
2019-02-25T03:30:14.264Z,-4.02
2019-02-25T03:31:14.292Z,-4.06
2019-02-25T03:32:14.578Z,-4.11
2019-02-25T03:33:14.882Z,-4.11
2019-02-25T03:34:14.166Z,-4.08
2019-02-25T03:35:14.480Z,-4.02
2019-02-25T03:36:14.817Z,-4.01
2019-02-25T03:37:15.141Z,-3.99
2019-02-25T03:38:14.413Z,-3.95
2019-02-25T03:39:14.689Z,-3.95
2019-02-25T03:40:14.967Z,-4.04
2019-02-25T03:41:15.000Z,-4.05
2019-02-25T03:42:14.254Z,-4.06
2019-02-25T03:43:14.522Z,-4.09
2019-02-25T03:44:14.785Z,-4.11
2019-02-25T03:45:15.343Z,-4.19
2019-02-25T03:46:14.647Z,-4.16
2019-02-25T03:47:14.908Z,-4.18
2019-02-25T03:48:14.164Z,-4.16
2019-02-25T03:49:14.428Z,-4.14
2019-02-25T03:50:14.719Z,-4.08
2019-02-25T03:51:14.741Z,-4.11
2019-02-25T03:52:15.011Z,-4.11
2019-02-25T03:53:14.274Z,-4.11
2019-02-25T03:54:14.541Z,-4.12
2019-02-25T03:55:14.808Z,-4.14
2019-02-25T03:56:15.068Z,-4.18
2019-02-25T03:57:14.343Z,-4.22
2019-02-25T03:58:14.599Z,-4.21
2019-02-25T03:59:14.868Z,-4.23
2019-02-25T04:00:15.154Z,-4.30
2019-02-25T04:01:14.233Z,-4.29
2019-02-25T04:02:14.499Z,-4.30
2019-02-25T04:03:14.761Z,-4.26
2019-02-25T04:04:15.038Z,-4.26
2019-02-25T04:05:14.326Z,-4.26
2019-02-25T04:06:14.612Z,-4.23
2019-02-25T04:07:14.883Z,-4.25
2019-02-25T04:08:15.165Z,-4.23
2019-02-25T04:09:14.425Z,-4.26
2019-02-25T04:10:14.704Z,-4.27
2019-02-25T04:11:14.747Z,-4.29
2019-02-25T04:12:15.023Z,-4.27
2019-02-25T04:13:14.295Z,-4.29
2019-02-25T04:14:14.573Z,-4.30
2019-02-25T04:15:14.847Z,-4.30
2019-02-25T04:16:15.112Z,-4.30
2019-02-25T04:17:14.376Z,-4.30
2019-02-25T04:18:14.634Z,-4.30
2019-02-25T04:19:14.902Z,-4.33
2019-02-25T04:20:14.178Z,-4.33
2019-02-25T04:21:14.213Z,-4.32
2019-02-25T04:22:14.474Z,-4.30
2019-02-25T04:23:14.760Z,-4.30
2019-02-25T04:24:15.034Z,-4.30
2019-02-25T04:25:14.520Z,-4.29
2019-02-25T04:26:14.794Z,-4.29
2019-02-25T04:27:15.069Z,-4.32
2019-02-25T04:28:14.357Z,-4.26
2019-02-25T04:29:14.637Z,-4.25
2019-02-25T04:30:14.905Z,-4.26
2019-02-25T04:31:14.976Z,-4.22
2019-02-25T04:32:14.242Z,-4.23
2019-02-25T04:33:14.507Z,-4.27
2019-02-25T04:34:14.779Z,-4.26
2019-02-25T04:35:15.381Z,-4.29
2019-02-25T04:36:14.651Z,-4.27
2019-02-25T04:37:14.938Z,-4.27
2019-02-25T04:38:14.200Z,-4.27
2019-02-25T04:39:14.474Z,-4.29
2019-02-25T04:40:14.754Z,-4.27
2019-02-25T04:41:14.793Z,-4.27
2019-02-25T04:42:15.062Z,-4.30
2019-02-25T04:43:14.327Z,-4.32
2019-02-25T04:44:14.603Z,-4.30
2019-02-25T04:45:14.866Z,-4.27
2019-02-25T04:46:15.138Z,-4.26
2019-02-25T04:47:14.409Z,-4.32
2019-02-25T04:48:14.677Z,-4.32
2019-02-25T04:49:14.950Z,-4.30
2019-02-25T04:50:14.228Z,-4.30
2019-02-25T04:51:14.270Z,-4.30
2019-02-25T04:52:14.542Z,-4.30
2019-02-25T04:53:14.816Z,-4.32
2019-02-25T04:54:15.094Z,-4.29
2019-02-25T04:55:14.367Z,-4.27
2019-02-25T04:56:14.629Z,-4.29
2019-02-25T04:57:14.922Z,-4.29
2019-02-25T04:58:14.193Z,-4.30
2019-02-25T04:59:14.469Z,-4.27
2019-02-25T05:00:14.769Z,-4.25
2019-02-25T05:01:14.790Z,-4.23
2019-02-25T05:02:15.046Z,-4.26
2019-02-25T05:03:14.327Z,-4.33
2019-02-25T05:04:14.600Z,-4.43
2019-02-25T05:05:14.877Z,-4.46
2019-02-25T05:06:15.162Z,-4.47
2019-02-25T05:07:14.442Z,-4.50
2019-02-25T05:08:14.708Z,-4.49
2019-02-25T05:09:14.979Z,-4.47
2019-02-25T05:10:14.281Z,-4.49
2019-02-25T05:11:14.316Z,-4.42
2019-02-25T05:12:14.615Z,-4.40
2019-02-25T05:13:14.889Z,-4.39
2019-02-25T05:14:14.166Z,-4.36
2019-02-25T05:15:14.460Z,-4.37
2019-02-25T05:16:14.746Z,-4.35
2019-02-25T05:17:15.022Z,-4.40
2019-02-25T05:18:14.292Z,-4.40
2019-02-25T05:19:14.561Z,-4.42
2019-02-25T05:20:14.851Z,-4.39
2019-02-25T05:21:14.880Z,-4.37
2019-02-25T05:22:15.138Z,-4.27
2019-02-25T05:23:14.402Z,-4.32
2019-02-25T05:24:14.670Z,-4.30
2019-02-25T05:25:14.954Z,-4.26
2019-02-25T05:26:14.239Z,-4.25
2019-02-25T05:27:14.515Z,-4.25
2019-02-25T05:28:14.778Z,-4.16
2019-02-25T05:29:15.044Z,-4.19
2019-02-25T05:30:14.321Z,-4.21
2019-02-25T05:31:14.365Z,-4.26
2019-02-25T05:32:14.630Z,-4.27
2019-02-25T05:33:14.889Z,-4.30
2019-02-25T05:34:14.163Z,-4.30
2019-02-25T05:35:14.441Z,-4.36
2019-02-25T05:36:14.713Z,-4.37
2019-02-25T05:37:14.996Z,-4.36
2019-02-25T05:38:14.268Z,-4.35
2019-02-25T05:39:14.542Z,-4.39
2019-02-25T05:40:14.853Z,-4.42
2019-02-25T05:41:14.870Z,-4.42
2019-02-25T05:42:15.123Z,-4.37
2019-02-25T05:43:14.405Z,-4.37
2019-02-25T05:44:14.671Z,-4.37
2019-02-25T05:45:14.965Z,-4.36
2019-02-25T05:46:14.263Z,-4.39
2019-02-25T05:47:14.527Z,-4.35
2019-02-25T05:48:14.793Z,-4.37
2019-02-25T05:49:15.075Z,-4.37
2019-02-25T05:50:14.384Z,-4.37
2019-02-25T05:51:14.394Z,-4.42
2019-02-25T05:52:14.669Z,-4.45
2019-02-25T05:53:14.929Z,-4.47
2019-02-25T05:54:14.197Z,-4.52
2019-02-25T05:55:14.484Z,-4.53
2019-02-25T05:56:14.734Z,-4.49
2019-02-25T05:57:15.024Z,-4.49
2019-02-25T05:58:14.286Z,-4.45
2019-02-25T05:59:14.550Z,-4.45
2019-02-25T06:00:14.839Z,-4.46
2019-02-25T06:01:14.917Z,-4.45
2019-02-25T06:02:14.518Z,-4.42
2019-02-25T06:03:14.790Z,-4.35
2019-02-25T06:04:15.057Z,-4.26
2019-02-25T06:05:14.326Z,-4.18
2019-02-25T06:06:14.584Z,-4.12
2019-02-25T06:07:14.875Z,-4.21
2019-02-25T06:08:15.149Z,-4.26
2019-02-25T06:09:14.412Z,-4.37
2019-02-25T06:10:14.691Z,-4.39
2019-02-25T06:11:14.723Z,-4.63
2019-02-25T06:12:14.987Z,-4.64
2019-02-25T06:13:14.262Z,-4.67
2019-02-25T06:14:14.539Z,-4.67
2019-02-25T06:15:14.812Z,-4.68
2019-02-25T06:16:15.660Z,-4.68
2019-02-25T06:17:14.930Z,-4.63
2019-02-25T06:18:14.192Z,-4.60
2019-02-25T06:19:14.453Z,-4.47
2019-02-25T06:20:14.722Z,-4.56
2019-02-25T06:21:14.773Z,-4.56
2019-02-25T06:22:15.028Z,-4.60
2019-02-25T06:23:14.289Z,-4.58
2019-02-25T06:24:14.566Z,-4.58
2019-02-25T06:25:14.837Z,-4.54
2019-02-25T06:26:15.162Z,-4.52
2019-02-25T06:27:14.433Z,-4.47
2019-02-25T06:28:14.706Z,-4.52
2019-02-25T06:29:14.977Z,-4.58
2019-02-25T06:30:14.248Z,-4.61
2019-02-25T06:31:14.288Z,-4.65
2019-02-25T06:32:14.560Z,-4.68
2019-02-25T06:33:14.833Z,-4.70
2019-02-25T06:34:15.098Z,-4.70
2019-02-25T06:35:14.387Z,-4.68
2019-02-25T06:36:14.683Z,-4.65
2019-02-25T06:37:14.959Z,-4.64
2019-02-25T06:38:14.223Z,-4.61
2019-02-25T06:39:14.496Z,-4.60
2019-02-25T06:40:15.715Z,-4.58
2019-02-25T06:41:14.830Z,-4.58
2019-02-25T06:42:15.108Z,-4.53
2019-02-25T06:43:14.382Z,-4.49
2019-02-25T06:44:14.658Z,-4.45
2019-02-25T06:45:14.915Z,-4.42
2019-02-25T06:46:14.193Z,-4.40
2019-02-25T06:47:14.463Z,-4.32
2019-02-25T06:48:14.727Z,-4.23
2019-02-25T06:49:14.994Z,-4.22
2019-02-25T06:50:14.279Z,-4.16
2019-02-25T06:51:14.322Z,-4.18
2019-02-25T06:52:14.597Z,-4.14
2019-02-25T06:53:14.866Z,-4.12
2019-02-25T06:54:15.132Z,-4.09
2019-02-25T06:55:14.406Z,-4.05
2019-02-25T06:56:14.671Z,-4.08
2019-02-25T06:57:14.926Z,-4.04
2019-02-25T06:58:14.191Z,-3.91
2019-02-25T06:59:14.455Z,-3.87
2019-02-25T07:00:14.752Z,-3.80
2019-02-25T07:01:14.774Z,-3.81
2019-02-25T07:02:15.039Z,-3.84
2019-02-25T07:03:14.299Z,-3.84
2019-02-25T07:04:14.574Z,-3.81
2019-02-25T07:05:14.846Z,-3.78
2019-02-25T07:06:15.123Z,-3.77
2019-02-25T07:07:14.384Z,-3.76
2019-02-25T07:08:14.638Z,-3.76
2019-02-25T07:09:14.909Z,-3.73
2019-02-25T07:10:14.176Z,-3.68
2019-02-25T07:11:14.236Z,-3.66
2019-02-25T07:12:14.499Z,-3.61
2019-02-25T07:13:14.755Z,-3.63
2019-02-25T07:14:15.019Z,-3.57
2019-02-25T07:15:14.284Z,-3.59
2019-02-25T07:16:14.561Z,-3.57
2019-02-25T07:17:14.819Z,-3.54
2019-02-25T07:18:15.080Z,-3.49
2019-02-25T07:19:14.349Z,-3.47
2019-02-25T07:20:14.623Z,-3.43
2019-02-25T07:21:14.671Z,-3.37
2019-02-25T07:22:14.938Z,-3.37
2019-02-25T07:23:14.209Z,-3.35
2019-02-25T07:24:14.478Z,-3.37
2019-02-25T07:25:14.731Z,-3.33
2019-02-25T07:26:15.029Z,-3.26
2019-02-25T07:27:14.290Z,-3.19
2019-02-25T07:28:14.559Z,-3.19
2019-02-25T07:29:14.823Z,-3.21
2019-02-25T07:30:15.102Z,-3.19
2019-02-25T07:31:15.132Z,-3.18
2019-02-25T07:32:14.414Z,-3.12
2019-02-25T07:33:14.673Z,-3.05
2019-02-25T07:34:14.934Z,-2.94
2019-02-25T07:35:14.212Z,-2.95
2019-02-25T07:36:14.474Z,-2.92
2019-02-25T07:37:14.738Z,-2.95
2019-02-25T07:38:15.002Z,-2.84
2019-02-25T07:39:14.278Z,-2.81
2019-02-25T07:40:14.557Z,-2.82
2019-02-25T07:41:14.605Z,-2.80
2019-02-25T07:42:14.876Z,-2.76
2019-02-25T07:43:15.558Z,-2.66
2019-02-25T07:44:14.910Z,-2.63
2019-02-25T07:45:14.187Z,-2.62
2019-02-25T07:46:14.452Z,-2.60
2019-02-25T07:47:14.722Z,-2.62
2019-02-25T07:48:14.990Z,-2.57
2019-02-25T07:49:14.269Z,-2.41
2019-02-25T07:50:14.571Z,-2.32
2019-02-25T07:51:14.620Z,-2.22
2019-02-25T07:52:14.894Z,-2.15
2019-02-25T07:53:14.167Z,-2.06
2019-02-25T07:54:14.438Z,-2.04
2019-02-25T07:55:14.703Z,-2.14
2019-02-25T07:56:14.977Z,-2.14
2019-02-25T07:57:14.236Z,-2.08
2019-02-25T07:58:14.502Z,-2.04
2019-02-25T07:59:14.776Z,-1.92
2019-02-25T08:00:15.089Z,-1.92
2019-02-25T08:01:14.159Z,-1.66
2019-02-25T08:02:14.424Z,-1.18
2019-02-25T08:03:14.705Z,-1.18
2019-02-25T08:04:14.979Z,-1.18
2019-02-25T08:05:14.271Z,-1.15
2019-02-25T08:06:14.554Z,-1.11
2019-02-25T08:07:14.812Z,-1.15
2019-02-25T08:08:15.072Z,-1.19
2019-02-25T08:09:14.341Z,-1.19
2019-02-25T08:10:14.612Z,-1.07
2019-02-25T08:11:14.658Z,-1.01
2019-02-25T08:12:14.924Z,-1.04
2019-02-25T08:13:14.190Z,-0.87
2019-02-25T08:14:14.460Z,-0.82
2019-02-25T08:15:14.741Z,-0.82
2019-02-25T08:16:15.014Z,-0.76
2019-02-25T08:17:14.278Z,-0.74
2019-02-25T08:18:14.554Z,-0.82
2019-02-25T08:19:14.820Z,-0.81
2019-02-25T08:20:15.100Z,-0.45
2019-02-25T08:21:14.143Z,-0.45
2019-02-25T08:22:14.411Z,-0.35
2019-02-25T08:23:14.678Z,-0.10
2019-02-25T08:24:14.945Z,0.05
2019-02-25T08:25:14.216Z,0.08
2019-02-25T08:26:14.497Z,0.16
2019-02-25T08:27:14.755Z,0.22
2019-02-25T08:28:15.021Z,-0.01
2019-02-25T08:29:14.300Z,-0.05
2019-02-25T08:30:14.578Z,-0.01
2019-02-25T08:31:14.604Z,0.00
2019-02-25T08:32:14.863Z,0.06
2019-02-25T08:33:15.138Z,0.15
2019-02-25T08:34:18.560Z,0.23
2019-02-25T08:35:14.428Z,0.24
2019-02-25T08:36:14.692Z,0.24
2019-02-25T08:37:14.962Z,0.36
2019-02-25T08:38:14.223Z,0.45
2019-02-25T08:39:14.494Z,0.63
2019-02-25T08:40:14.773Z,0.53
2019-02-25T08:41:14.842Z,0.51
2019-02-25T08:42:15.107Z,0.53
2019-02-25T08:43:14.376Z,0.71
2019-02-25T08:44:14.643Z,0.82
2019-02-25T08:45:14.908Z,1.00
2019-02-25T08:46:14.165Z,1.19
2019-02-25T08:47:14.436Z,1.24
2019-02-25T08:48:15.003Z,1.06
2019-02-25T08:49:14.279Z,1.02
2019-02-25T08:50:14.567Z,1.07
2019-02-25T08:51:14.598Z,1.10
2019-02-25T08:52:14.858Z,1.02
2019-02-25T08:53:15.122Z,1.12
2019-02-25T08:54:14.382Z,1.26
2019-02-25T08:55:14.638Z,1.75
2019-02-25T08:56:14.904Z,1.98
2019-02-25T08:57:14.172Z,1.92
2019-02-25T08:58:14.446Z,1.99
2019-02-25T08:59:14.711Z,2.02
2019-02-25T09:00:14.986Z,1.93
2019-02-25T09:01:15.510Z,1.88
2019-02-25T09:02:14.886Z,1.79
2019-02-25T09:03:14.185Z,1.83
2019-02-25T09:04:14.441Z,2.10
2019-02-25T09:05:14.719Z,2.16
2019-02-25T09:06:14.987Z,2.16
2019-02-25T09:07:14.250Z,2.06
2019-02-25T09:08:14.513Z,2.06
2019-02-25T09:09:14.786Z,2.03
2019-02-25T09:10:15.062Z,2.00
2019-02-25T09:11:15.123Z,2.06
2019-02-25T09:12:14.395Z,2.03
2019-02-25T09:13:14.659Z,2.27
2019-02-25T09:14:14.914Z,2.41
2019-02-25T09:15:14.198Z,2.43
2019-02-25T09:16:14.464Z,2.53
2019-02-25T09:17:16.089Z,2.54
2019-02-25T09:18:14.486Z,2.44
2019-02-25T09:19:14.749Z,2.63
2019-02-25T09:20:15.022Z,2.63
2019-02-25T09:21:15.068Z,2.76
2019-02-25T09:22:14.324Z,2.82
2019-02-25T09:23:14.589Z,2.89
2019-02-25T09:24:14.860Z,2.92
2019-02-25T09:25:15.135Z,3.12
2019-02-25T09:26:14.410Z,3.07
2019-02-25T09:27:14.667Z,3.00
2019-02-25T09:28:14.936Z,2.78
2019-02-25T09:29:14.212Z,2.76
2019-02-25T09:30:14.498Z,2.76
2019-02-25T09:31:14.564Z,2.71
2019-02-25T09:32:14.832Z,2.81
2019-02-25T09:33:15.112Z,2.86
2019-02-25T09:34:14.400Z,3.02
2019-02-25T09:35:14.669Z,3.07
2019-02-25T09:36:14.944Z,3.17
2019-02-25T09:37:14.200Z,3.23
2019-02-25T09:38:14.475Z,3.61
2019-02-25T09:39:16.612Z,3.41
2019-02-25T09:40:14.194Z,3.33
2019-02-25T09:41:14.224Z,3.54
2019-02-25T09:42:14.483Z,3.51
2019-02-25T09:43:14.741Z,3.74
2019-02-25T09:44:15.002Z,3.71
2019-02-25T09:45:14.264Z,3.65
2019-02-25T09:46:14.529Z,3.64
2019-02-25T09:47:14.825Z,3.83
2019-02-25T09:48:15.086Z,3.85
2019-02-25T09:49:14.346Z,3.88
2019-02-25T09:50:14.630Z,3.86
2019-02-25T09:51:14.679Z,3.88
2019-02-25T09:52:14.947Z,3.99
2019-02-25T09:53:14.208Z,4.08
2019-02-25T09:54:14.469Z,4.08
2019-02-25T09:55:14.752Z,3.96
2019-02-25T09:56:15.037Z,3.90
2019-02-25T09:57:14.308Z,3.89
2019-02-25T09:58:14.582Z,3.86
2019-02-25T09:59:14.858Z,3.93
2019-02-25T10:00:15.140Z,4.13
2019-02-25T10:01:14.214Z,4.13
2019-02-25T10:02:14.472Z,4.48
2019-02-25T10:03:14.739Z,4.51
2019-02-25T10:04:15.004Z,4.43
2019-02-25T10:05:14.277Z,4.57
2019-02-25T10:06:14.550Z,4.63
2019-02-25T10:07:14.821Z,4.61
2019-02-25T10:08:15.077Z,4.67
2019-02-25T10:09:14.359Z,4.61
2019-02-25T10:10:14.649Z,4.43
2019-02-25T10:11:14.688Z,4.48
2019-02-25T10:12:14.972Z,4.64
2019-02-25T10:13:15.583Z,4.86
2019-02-25T10:14:15.055Z,4.85
2019-02-25T10:15:14.324Z,4.71
2019-02-25T10:16:14.596Z,4.81
2019-02-25T10:17:23.406Z,5.06
2019-02-25T10:18:14.433Z,5.30
2019-02-25T10:19:14.714Z,5.22
2019-02-25T10:20:14.992Z,5.23
2019-02-25T10:21:15.050Z,5.19
2019-02-25T10:22:14.310Z,5.19
2019-02-25T10:23:14.583Z,5.16
2019-02-25T10:24:14.845Z,5.10
2019-02-25T10:25:15.120Z,5.31
2019-02-25T10:26:14.391Z,5.38
2019-02-25T10:27:14.654Z,5.24
2019-02-25T10:28:14.922Z,5.24
2019-02-25T10:29:14.179Z,5.19
2019-02-25T10:30:14.449Z,5.19
2019-02-25T10:31:15.292Z,5.57
2019-02-25T10:32:14.809Z,5.70
2019-02-25T10:33:15.075Z,5.61
2019-02-25T10:34:14.352Z,6.08
2019-02-25T10:35:14.613Z,6.05
2019-02-25T10:36:14.876Z,5.98
2019-02-25T10:37:15.451Z,6.48
2019-02-25T10:38:14.410Z,6.43
2019-02-25T10:39:15.364Z,6.26
2019-02-25T10:40:15.889Z,6.19
2019-02-25T10:41:14.193Z,5.92
2019-02-25T10:42:14.463Z,6.08
2019-02-25T10:43:14.732Z,6.00
2019-02-25T10:44:14.998Z,6.21
2019-02-25T10:45:14.280Z,6.23
2019-02-25T10:46:15.855Z,6.37
2019-02-25T10:47:15.664Z,6.45
2019-02-25T10:48:15.725Z,6.61
2019-02-25T10:49:14.647Z,6.63
2019-02-25T10:50:14.919Z,6.72
2019-02-25T10:51:14.958Z,6.65
2019-02-25T10:52:15.061Z,6.61
2019-02-25T10:53:15.574Z,6.64
2019-02-25T10:54:16.773Z,6.65
2019-02-25T10:55:14.285Z,6.67
2019-02-25T10:56:16.552Z,6.76
2019-02-25T10:57:14.459Z,6.89
2019-02-25T10:58:14.735Z,6.74
2019-02-25T10:59:14.990Z,6.74
2019-02-25T11:00:14.290Z,6.68
2019-02-25T11:01:17.455Z,6.89
2019-02-25T11:02:15.664Z,7.17
2019-02-25T11:03:15.267Z,7.13
2019-02-25T11:04:15.347Z,7.05
2019-02-25T11:05:14.154Z,7.02
2019-02-25T11:06:14.431Z,7.03
2019-02-25T11:07:14.698Z,7.13
2019-02-25T11:08:14.980Z,7.68
2019-02-25T11:09:15.761Z,7.66
2019-02-25T11:10:15.647Z,7.65
2019-02-25T11:11:16.131Z,7.57
2019-02-25T11:12:14.542Z,7.47
2019-02-25T11:13:14.810Z,7.12
2019-02-25T11:14:15.088Z,6.86
2019-02-25T11:15:15.958Z,7.03
2019-02-25T11:16:15.674Z,7.53
2019-02-25T11:17:16.036Z,7.85
2019-02-25T11:18:14.874Z,7.88
2019-02-25T11:19:15.139Z,7.86
2019-02-25T11:20:14.399Z,7.71
2019-02-25T11:21:14.489Z,7.66
2019-02-25T11:22:16.280Z,8.05
2019-02-25T11:23:15.514Z,8.19
2019-02-25T11:24:16.178Z,7.91
2019-02-25T11:25:14.900Z,8.36
2019-02-25T11:26:14.166Z,8.36
2019-02-25T11:27:14.431Z,8.47
2019-02-25T11:28:23.499Z,8.37
2019-02-25T11:29:16.322Z,8.16
2019-02-25T11:30:16.208Z,8.12
2019-02-25T11:31:15.366Z,8.27
2019-02-25T11:32:14.920Z,8.30
2019-02-25T11:33:14.185Z,8.40
2019-02-25T11:34:14.449Z,8.06
2019-02-25T11:35:14.731Z,8.10
2019-02-25T11:36:16.800Z,8.39
2019-02-25T11:37:16.548Z,8.43
2019-02-25T11:38:14.254Z,8.69
2019-02-25T11:39:14.515Z,8.82
2019-02-25T11:40:14.789Z,8.68
2019-02-25T11:41:14.850Z,8.67
2019-02-25T11:42:16.446Z,9.16
2019-02-25T11:43:16.554Z,9.16
2019-02-25T11:44:16.496Z,9.10
2019-02-25T11:45:14.163Z,9.10
2019-02-25T11:46:14.421Z,9.02
2019-02-25T11:47:14.687Z,9.02
2019-02-25T11:48:14.951Z,9.64
2019-02-25T11:49:14.222Z,9.38
2019-02-25T11:50:14.507Z,9.43
2019-02-25T11:51:14.548Z,9.66
2019-02-25T11:52:14.819Z,9.71
2019-02-25T11:53:15.092Z,9.75
2019-02-25T11:54:14.376Z,9.65
2019-02-25T11:55:14.658Z,9.50
2019-02-25T11:56:14.929Z,9.44
2019-02-25T11:57:14.194Z,9.69
2019-02-25T11:58:14.457Z,9.61
2019-02-25T11:59:14.715Z,9.89
2019-02-25T12:00:14.990Z,9.89
2019-02-25T12:01:15.057Z,10.01
2019-02-25T12:02:14.321Z,9.88
2019-02-25T12:03:14.597Z,9.69
2019-02-25T12:04:14.868Z,9.81
2019-02-25T12:05:15.142Z,9.93
2019-02-25T12:06:14.414Z,10.02
2019-02-25T12:07:14.679Z,10.45
2019-02-25T12:08:14.957Z,10.45
2019-02-25T12:09:14.227Z,10.65
2019-02-25T12:10:14.502Z,10.74
2019-02-25T12:11:14.552Z,10.67
2019-02-25T12:12:14.817Z,10.61
2019-02-25T12:13:15.096Z,10.45
2019-02-25T12:14:14.360Z,10.24
2019-02-25T12:15:14.626Z,10.01
2019-02-25T12:16:14.914Z,10.02
2019-02-25T12:17:14.187Z,10.79
2019-02-25T12:18:14.451Z,10.89
2019-02-25T12:19:17.850Z,10.85
2019-02-25T12:20:14.569Z,10.87
2019-02-25T12:21:14.604Z,10.47
2019-02-25T12:22:14.924Z,10.67
2019-02-25T12:23:14.192Z,10.65
2019-02-25T12:24:14.457Z,10.61
2019-02-25T12:25:14.721Z,11.05
2019-02-25T12:26:15.018Z,11.03
2019-02-25T12:27:14.277Z,11.10
2019-02-25T12:28:14.574Z,11.10
2019-02-25T12:29:14.833Z,10.82
2019-02-25T12:30:15.096Z,11.07
2019-02-25T12:31:14.156Z,11.29
2019-02-25T12:32:14.423Z,11.39
2019-02-25T12:33:14.686Z,11.40
2019-02-25T12:34:14.951Z,11.25
2019-02-25T12:35:14.211Z,11.27
2019-02-25T12:36:14.487Z,11.67
2019-02-25T12:37:14.764Z,11.61
2019-02-25T12:38:15.085Z,11.57
2019-02-25T12:39:14.350Z,11.78
2019-02-25T12:40:14.623Z,11.74
2019-02-25T12:41:14.674Z,11.91
2019-02-25T12:42:14.938Z,12.01
2019-02-25T12:43:14.205Z,12.02
2019-02-25T12:44:14.470Z,11.88
2019-02-25T12:45:14.734Z,11.71
2019-02-25T12:46:15.030Z,11.96
2019-02-25T12:47:14.283Z,11.85
2019-02-25T12:48:14.603Z,11.93
2019-02-25T12:49:14.861Z,12.03
2019-02-25T12:50:15.136Z,12.06
2019-02-25T12:51:14.182Z,11.80
2019-02-25T12:52:14.463Z,11.78
2019-02-25T12:53:14.737Z,12.09
2019-02-25T12:54:14.999Z,11.98
2019-02-25T12:55:14.276Z,11.98
2019-02-25T12:56:14.548Z,11.91
2019-02-25T12:57:14.816Z,11.95
2019-02-25T12:58:15.083Z,11.98
2019-02-25T12:59:14.348Z,12.09